sensor_id;sensor_type;location;lat;lon;timestamp;temperature;humidity
25250;DHT22;13201;51.148;13.738;2023-09-12T00:00:48;20.10;99.90
25250;DHT22;13201;51.148;13.738;2023-09-12T00:03:14;20.00;99.90
25250;DHT22;13201;51.148;13.738;2023-09-12T00:05:40;20.00;99.90
25250;DHT22;13201;51.148;13.738;2023-09-12T00:08:06;20.10;99.90
25250;DHT22;13201;51.148;13.738;2023-09-12T00:10:32;20.10;99.90
25250;DHT22;13201;51.148;13.738;2023-09-12T00:12:58;20.10;99.90
25250;DHT22;13201;51.148;13.738;2023-09-12T00:15:26;20.00;99.90
25250;DHT22;13201;51.148;13.738;2023-09-12T00:17:51;19.90;99.90
25250;DHT22;13201;51.148;13.738;2023-09-12T00:20:17;19.80;99.90
25250;DHT22;13201;51.148;13.738;2023-09-12T00:22:43;19.60;99.90
25250;DHT22;13201;51.148;13.738;2023-09-12T00:25:08;19.60;99.90
25250;DHT22;13201;51.148;13.738;2023-09-12T00:27:34;19.60;99.90
25250;DHT22;13201;51.148;13.738;2023-09-12T00:30:00;19.60;99.90
25250;DHT22;13201;51.148;13.738;2023-09-12T00:32:25;19.60;99.90
25250;DHT22;13201;51.148;13.738;2023-09-12T00:34:51;19.70;99.90
25250;DHT22;13201;51.148;13.738;2023-09-12T00:37:16;19.70;99.90
25250;DHT22;13201;51.148;13.738;2023-09-12T00:39:42;19.70;99.90
25250;DHT22;13201;51.148;13.738;2023-09-12T00:42:08;19.70;99.90
25250;DHT22;13201;51.148;13.738;2023-09-12T00:44:34;19.80;99.90
25250;DHT22;13201;51.148;13.738;2023-09-12T00:47:01;19.80;99.90
25250;DHT22;13201;51.148;13.738;2023-09-12T00:49:28;19.80;99.90
25250;DHT22;13201;51.148;13.738;2023-09-12T00:51:56;19.80;99.90
25250;DHT22;13201;51.148;13.738;2023-09-12T00:54:22;19.70;99.90
25250;DHT22;13201;51.148;13.738;2023-09-12T00:56:48;19.60;99.90
25250;DHT22;13201;51.148;13.738;2023-09-12T00:59:15;19.60;99.90
25250;DHT22;13201;51.148;13.738;2023-09-12T01:01:42;19.60;99.90
25250;DHT22;13201;51.148;13.738;2023-09-12T01:29:00;18.20;99.90
25250;DHT22;13201;51.148;13.738;2023-09-12T01:31:27;18.00;99.90
25250;DHT22;13201;51.148;13.738;2023-09-12T01:33:57;18.10;99.90
25250;DHT22;13201;51.148;13.738;2023-09-12T01:36:23;18.20;99.90
25250;DHT22;13201;51.148;13.738;2023-09-12T01:38:48;18.30;99.90
25250;DHT22;13201;51.148;13.738;2023-09-12T01:41:14;18.40;99.90
25250;DHT22;13201;51.148;13.738;2023-09-12T01:43:41;18.40;99.90
25250;DHT22;13201;51.148;13.738;2023-09-12T01:46:08;18.50;99.90
25250;DHT22;13201;51.148;13.738;2023-09-12T01:48:35;18.50;99.90
25250;DHT22;13201;51.148;13.738;2023-09-12T01:51:02;18.60;99.90
25250;DHT22;13201;51.148;13.738;2023-09-12T01:53:28;18.70;99.90
25250;DHT22;13201;51.148;13.738;2023-09-12T01:55:57;18.70;99.90
25250;DHT22;13201;51.148;13.738;2023-09-12T01:58:25;18.80;99.90
25250;DHT22;13201;51.148;13.738;2023-09-12T02:00:51;18.80;99.90
25250;DHT22;13201;51.148;13.738;2023-09-12T02:03:16;18.80;99.90
25250;DHT22;13201;51.148;13.738;2023-09-12T02:05:42;18.90;99.90
25250;DHT22;13201;51.148;13.738;2023-09-12T02:08:08;18.90;99.90
25250;DHT22;13201;51.148;13.738;2023-09-12T02:10:34;18.90;99.90
25250;DHT22;13201;51.148;13.738;2023-09-12T02:12:59;18.80;99.90
25250;DHT22;13201;51.148;13.738;2023-09-12T02:15:25;18.90;99.90
25250;DHT22;13201;51.148;13.738;2023-09-12T02:17:52;18.80;99.90
25250;DHT22;13201;51.148;13.738;2023-09-12T02:20:17;18.80;99.90
25250;DHT22;13201;51.148;13.738;2023-09-12T02:22:44;18.80;99.90
25250;DHT22;13201;51.148;13.738;2023-09-12T02:25:10;18.70;99.90
25250;DHT22;13201;51.148;13.738;2023-09-12T02:27:36;18.80;99.90
25250;DHT22;13201;51.148;13.738;2023-09-12T02:30:03;18.70;99.90
25250;DHT22;13201;51.148;13.738;2023-09-12T02:32:28;18.70;99.90
25250;DHT22;13201;51.148;13.738;2023-09-12T02:34:55;18.70;99.90
25250;DHT22;13201;51.148;13.738;2023-09-12T02:37:22;18.70;99.90
25250;DHT22;13201;51.148;13.738;2023-09-12T02:39:48;18.70;99.90
25250;DHT22;13201;51.148;13.738;2023-09-12T02:42:14;18.70;99.90
25250;DHT22;13201;51.148;13.738;2023-09-12T02:44:39;18.70;99.90
25250;DHT22;13201;51.148;13.738;2023-09-12T02:47:05;18.80;99.90
25250;DHT22;13201;51.148;13.738;2023-09-12T02:49:31;18.70;99.90
25250;DHT22;13201;51.148;13.738;2023-09-12T02:51:57;18.60;99.90
25250;DHT22;13201;51.148;13.738;2023-09-12T02:54:22;18.60;99.90
25250;DHT22;13201;51.148;13.738;2023-09-12T02:56:48;18.60;99.90
25250;DHT22;13201;51.148;13.738;2023-09-12T02:59:13;18.50;99.90
25250;DHT22;13201;51.148;13.738;2023-09-12T03:01:39;18.50;99.90
25250;DHT22;13201;51.148;13.738;2023-09-12T03:04:05;18.60;99.90
25250;DHT22;13201;51.148;13.738;2023-09-12T03:06:30;18.60;99.90
25250;DHT22;13201;51.148;13.738;2023-09-12T03:08:57;18.50;99.90
25250;DHT22;13201;51.148;13.738;2023-09-12T03:11:25;18.50;99.90
25250;DHT22;13201;51.148;13.738;2023-09-12T03:13:50;18.40;99.90
25250;DHT22;13201;51.148;13.738;2023-09-12T03:16:16;18.40;99.90
25250;DHT22;13201;51.148;13.738;2023-09-12T03:18:42;18.40;99.90
25250;DHT22;13201;51.148;13.738;2023-09-12T03:21:07;18.30;99.90
25250;DHT22;13201;51.148;13.738;2023-09-12T03:23:33;18.40;99.90
25250;DHT22;13201;51.148;13.738;2023-09-12T03:26:05;18.40;99.90
25250;DHT22;13201;51.148;13.738;2023-09-12T03:28:32;18.30;99.90
25250;DHT22;13201;51.148;13.738;2023-09-12T03:31:09;18.30;99.90
25250;DHT22;13201;51.148;13.738;2023-09-12T03:33:37;18.30;99.90
25250;DHT22;13201;51.148;13.738;2023-09-12T03:36:03;18.30;99.90
25250;DHT22;13201;51.148;13.738;2023-09-12T03:38:29;18.20;99.90
25250;DHT22;13201;51.148;13.738;2023-09-12T03:40:54;18.20;99.90
25250;DHT22;13201;51.148;13.738;2023-09-12T03:43:20;18.20;99.90
25250;DHT22;13201;51.148;13.738;2023-09-12T03:45:46;18.20;99.90
25250;DHT22;13201;51.148;13.738;2023-09-12T03:48:11;18.20;99.90
25250;DHT22;13201;51.148;13.738;2023-09-12T03:50:37;18.10;99.90
25250;DHT22;13201;51.148;13.738;2023-09-12T03:53:03;18.10;99.90
25250;DHT22;13201;51.148;13.738;2023-09-12T03:55:28;18.10;99.90
25250;DHT22;13201;51.148;13.738;2023-09-12T03:57:54;18.00;99.90
25250;DHT22;13201;51.148;13.738;2023-09-12T04:00:20;17.90;99.90
25250;DHT22;13201;51.148;13.738;2023-09-12T04:02:45;18.00;99.90
25250;DHT22;13201;51.148;13.738;2023-09-12T04:05:11;18.10;99.90
25250;DHT22;13201;51.148;13.738;2023-09-12T04:07:37;18.00;99.90
25250;DHT22;13201;51.148;13.738;2023-09-12T04:10:02;18.00;99.90
25250;DHT22;13201;51.148;13.738;2023-09-12T04:12:28;18.00;99.90
25250;DHT22;13201;51.148;13.738;2023-09-12T04:14:54;18.10;99.90
25250;DHT22;13201;51.148;13.738;2023-09-12T04:17:22;18.10;99.90
25250;DHT22;13201;51.148;13.738;2023-09-12T04:19:49;18.10;99.90
25250;DHT22;13201;51.148;13.738;2023-09-12T04:22:14;18.10;99.90
25250;DHT22;13201;51.148;13.738;2023-09-12T04:24:40;18.10;99.90
25250;DHT22;13201;51.148;13.738;2023-09-12T04:27:06;18.10;99.90
25250;DHT22;13201;51.148;13.738;2023-09-12T04:29:33;18.10;99.90
25250;DHT22;13201;51.148;13.738;2023-09-12T04:32:04;18.10;99.90
25250;DHT22;13201;51.148;13.738;2023-09-12T04:34:30;18.10;99.90
25250;DHT22;13201;51.148;13.738;2023-09-12T04:36:56;18.10;99.90
25250;DHT22;13201;51.148;13.738;2023-09-12T04:39:21;18.10;99.90
25250;DHT22;13201;51.148;13.738;2023-09-12T04:41:47;18.10;99.90
25250;DHT22;13201;51.148;13.738;2023-09-12T04:44:13;18.00;99.90
25250;DHT22;13201;51.148;13.738;2023-09-12T04:46:38;17.90;99.90
25250;DHT22;13201;51.148;13.738;2023-09-12T04:49:04;17.90;99.90
25250;DHT22;13201;51.148;13.738;2023-09-12T04:51:30;17.90;99.90
25250;DHT22;13201;51.148;13.738;2023-09-12T04:53:55;17.80;99.90
25250;DHT22;13201;51.148;13.738;2023-09-12T04:56:22;17.90;99.90
25250;DHT22;13201;51.148;13.738;2023-09-12T04:58:50;18.00;99.90
25250;DHT22;13201;51.148;13.738;2023-09-12T05:01:15;18.10;99.90
25250;DHT22;13201;51.148;13.738;2023-09-12T05:03:42;18.10;99.90
25250;DHT22;13201;51.148;13.738;2023-09-12T05:06:08;18.20;99.90
25250;DHT22;13201;51.148;13.738;2023-09-12T05:08:33;18.20;99.90
25250;DHT22;13201;51.148;13.738;2023-09-12T05:10:59;18.30;99.90
25250;DHT22;13201;51.148;13.738;2023-09-12T05:13:25;18.20;99.90
25250;DHT22;13201;51.148;13.738;2023-09-12T05:15:50;18.20;99.90
25250;DHT22;13201;51.148;13.738;2023-09-12T05:18:16;18.10;99.90
25250;DHT22;13201;51.148;13.738;2023-09-12T05:20:42;18.20;99.90
25250;DHT22;13201;51.148;13.738;2023-09-12T05:23:08;18.10;99.90
25250;DHT22;13201;51.148;13.738;2023-09-12T05:25:34;18.10;99.90
25250;DHT22;13201;51.148;13.738;2023-09-12T05:27:59;18.10;99.90
25250;DHT22;13201;51.148;13.738;2023-09-12T05:30:25;18.10;99.90
25250;DHT22;13201;51.148;13.738;2023-09-12T05:32:51;18.20;99.90
25250;DHT22;13201;51.148;13.738;2023-09-12T05:35:17;18.30;99.90
25250;DHT22;13201;51.148;13.738;2023-09-12T05:37:43;18.30;99.90
25250;DHT22;13201;51.148;13.738;2023-09-12T05:40:09;18.40;99.90
25250;DHT22;13201;51.148;13.738;2023-09-12T05:42:35;18.50;99.90
25250;DHT22;13201;51.148;13.738;2023-09-12T05:45:01;18.50;99.90
25250;DHT22;13201;51.148;13.738;2023-09-12T05:47:27;18.60;99.90
25250;DHT22;13201;51.148;13.738;2023-09-12T05:49:53;18.60;99.90
25250;DHT22;13201;51.148;13.738;2023-09-12T05:52:19;18.70;99.90
25250;DHT22;13201;51.148;13.738;2023-09-12T05:54:45;18.70;99.90
25250;DHT22;13201;51.148;13.738;2023-09-12T05:57:11;18.80;99.90
25250;DHT22;13201;51.148;13.738;2023-09-12T05:59:38;18.80;99.90
25250;DHT22;13201;51.148;13.738;2023-09-12T06:02:04;18.80;99.90
25250;DHT22;13201;51.148;13.738;2023-09-12T06:04:32;18.90;99.90
25250;DHT22;13201;51.148;13.738;2023-09-12T06:06:57;19.00;99.90
25250;DHT22;13201;51.148;13.738;2023-09-12T06:09:23;19.10;99.90
25250;DHT22;13201;51.148;13.738;2023-09-12T06:11:49;19.10;99.90
25250;DHT22;13201;51.148;13.738;2023-09-12T06:14:14;19.20;99.90
25250;DHT22;13201;51.148;13.738;2023-09-12T06:16:40;19.30;99.90
25250;DHT22;13201;51.148;13.738;2023-09-12T06:19:06;19.30;99.90
25250;DHT22;13201;51.148;13.738;2023-09-12T06:21:32;19.50;99.90
25250;DHT22;13201;51.148;13.738;2023-09-12T06:24:19;19.60;99.90
25250;DHT22;13201;51.148;13.738;2023-09-12T06:26:45;19.60;99.90
25250;DHT22;13201;51.148;13.738;2023-09-12T06:29:10;19.60;99.90
25250;DHT22;13201;51.148;13.738;2023-09-12T06:31:36;19.70;99.90
25250;DHT22;13201;51.148;13.738;2023-09-12T06:34:02;19.60;99.90
25250;DHT22;13201;51.148;13.738;2023-09-12T06:36:28;19.60;99.90
25250;DHT22;13201;51.148;13.738;2023-09-12T06:38:57;19.70;99.90
25250;DHT22;13201;51.148;13.738;2023-09-12T06:41:23;19.80;99.90
25250;DHT22;13201;51.148;13.738;2023-09-12T06:43:49;20.00;99.90
25250;DHT22;13201;51.148;13.738;2023-09-12T06:46:14;19.90;99.90
25250;DHT22;13201;51.148;13.738;2023-09-12T06:48:46;20.10;99.90
25250;DHT22;13201;51.148;13.738;2023-09-12T06:51:12;20.20;99.90
25250;DHT22;13201;51.148;13.738;2023-09-12T06:53:38;20.30;99.90
25250;DHT22;13201;51.148;13.738;2023-09-12T06:56:04;20.40;99.90
25250;DHT22;13201;51.148;13.738;2023-09-12T06:58:30;20.50;99.90
25250;DHT22;13201;51.148;13.738;2023-09-12T07:00:56;20.40;99.90
25250;DHT22;13201;51.148;13.738;2023-09-12T07:03:26;20.40;99.90
25250;DHT22;13201;51.148;13.738;2023-09-12T07:05:52;20.50;99.90
25250;DHT22;13201;51.148;13.738;2023-09-12T07:08:17;20.50;99.90
25250;DHT22;13201;51.148;13.738;2023-09-12T07:10:46;20.60;99.90
25250;DHT22;13201;51.148;13.738;2023-09-12T07:13:12;20.70;99.90
25250;DHT22;13201;51.148;13.738;2023-09-12T07:15:38;20.80;99.90
25250;DHT22;13201;51.148;13.738;2023-09-12T07:18:04;20.90;99.90
25250;DHT22;13201;51.148;13.738;2023-09-12T07:20:30;21.00;99.90
25250;DHT22;13201;51.148;13.738;2023-09-12T07:22:56;21.00;99.90
25250;DHT22;13201;51.148;13.738;2023-09-12T07:25:22;21.10;99.90
25250;DHT22;13201;51.148;13.738;2023-09-12T07:27:49;21.20;99.90
25250;DHT22;13201;51.148;13.738;2023-09-12T07:30:15;21.30;99.90
25250;DHT22;13201;51.148;13.738;2023-09-12T07:32:41;21.40;99.90
25250;DHT22;13201;51.148;13.738;2023-09-12T07:35:07;21.40;99.90
25250;DHT22;13201;51.148;13.738;2023-09-12T07:37:33;21.50;99.90
25250;DHT22;13201;51.148;13.738;2023-09-12T07:39:58;21.60;99.90
25250;DHT22;13201;51.148;13.738;2023-09-12T07:42:24;21.80;99.90
25250;DHT22;13201;51.148;13.738;2023-09-12T07:44:50;21.80;99.90
25250;DHT22;13201;51.148;13.738;2023-09-12T07:47:16;22.00;99.90
25250;DHT22;13201;51.148;13.738;2023-09-12T07:49:42;22.10;99.90
25250;DHT22;13201;51.148;13.738;2023-09-12T07:52:07;22.20;99.90
25250;DHT22;13201;51.148;13.738;2023-09-12T07:54:33;22.20;99.90
25250;DHT22;13201;51.148;13.738;2023-09-12T07:56:59;22.30;99.90
25250;DHT22;13201;51.148;13.738;2023-09-12T07:59:25;22.30;99.90
25250;DHT22;13201;51.148;13.738;2023-09-12T08:01:50;22.50;99.90
25250;DHT22;13201;51.148;13.738;2023-09-12T08:04:17;22.60;99.90
25250;DHT22;13201;51.148;13.738;2023-09-12T08:06:43;22.70;99.90
25250;DHT22;13201;51.148;13.738;2023-09-12T08:09:09;22.70;99.90
25250;DHT22;13201;51.148;13.738;2023-09-12T08:11:35;22.80;99.90
25250;DHT22;13201;51.148;13.738;2023-09-12T08:14:01;22.90;99.90
25250;DHT22;13201;51.148;13.738;2023-09-12T08:16:27;22.90;99.90
25250;DHT22;13201;51.148;13.738;2023-09-12T08:18:53;23.00;99.90
25250;DHT22;13201;51.148;13.738;2023-09-12T08:21:18;23.10;99.90
25250;DHT22;13201;51.148;13.738;2023-09-12T08:23:44;23.10;99.90
25250;DHT22;13201;51.148;13.738;2023-09-12T08:26:10;23.20;99.90
25250;DHT22;13201;51.148;13.738;2023-09-12T08:28:36;23.30;99.90
25250;DHT22;13201;51.148;13.738;2023-09-12T08:31:02;23.40;99.90
25250;DHT22;13201;51.148;13.738;2023-09-12T08:33:28;23.40;99.90
25250;DHT22;13201;51.148;13.738;2023-09-12T08:35:53;23.60;99.90
25250;DHT22;13201;51.148;13.738;2023-09-12T08:38:19;23.70;99.90
25250;DHT22;13201;51.148;13.738;2023-09-12T08:40:49;23.80;99.90
25250;DHT22;13201;51.148;13.738;2023-09-12T08:43:16;23.80;99.90
25250;DHT22;13201;51.148;13.738;2023-09-12T08:45:42;23.90;99.90
25250;DHT22;13201;51.148;13.738;2023-09-12T08:48:10;24.00;99.90
25250;DHT22;13201;51.148;13.738;2023-09-12T08:50:36;24.10;99.90
25250;DHT22;13201;51.148;13.738;2023-09-12T08:53:03;24.20;99.90
25250;DHT22;13201;51.148;13.738;2023-09-12T08:55:29;24.30;99.90
25250;DHT22;13201;51.148;13.738;2023-09-12T08:57:55;24.40;99.90
25250;DHT22;13201;51.148;13.738;2023-09-12T09:00:23;24.50;99.90
25250;DHT22;13201;51.148;13.738;2023-09-12T09:02:48;24.60;99.90
25250;DHT22;13201;51.148;13.738;2023-09-12T09:05:16;24.70;99.90
25250;DHT22;13201;51.148;13.738;2023-09-12T09:07:43;24.80;99.90
25250;DHT22;13201;51.148;13.738;2023-09-12T09:10:16;24.90;99.90
25250;DHT22;13201;51.148;13.738;2023-09-12T09:12:44;25.10;99.90
25250;DHT22;13201;51.148;13.738;2023-09-12T09:15:24;25.10;99.90
25250;DHT22;13201;51.148;13.738;2023-09-12T09:17:51;25.20;99.90
25250;DHT22;13201;51.148;13.738;2023-09-12T09:20:35;25.20;99.90
25250;DHT22;13201;51.148;13.738;2023-09-12T09:23:07;25.50;99.90
25250;DHT22;13201;51.148;13.738;2023-09-12T09:25:51;25.50;99.90
25250;DHT22;13201;51.148;13.738;2023-09-12T09:28:18;25.60;99.90
25250;DHT22;13201;51.148;13.738;2023-09-12T09:30:45;25.70;99.90
25250;DHT22;13201;51.148;13.738;2023-09-12T09:33:12;25.80;99.90
25250;DHT22;13201;51.148;13.738;2023-09-12T09:35:41;25.80;99.90
25250;DHT22;13201;51.148;13.738;2023-09-12T09:38:07;25.90;99.90
25250;DHT22;13201;51.148;13.738;2023-09-12T09:40:34;26.00;99.90
25250;DHT22;13201;51.148;13.738;2023-09-12T09:43:02;26.10;99.90
25250;DHT22;13201;51.148;13.738;2023-09-12T09:45:31;26.30;99.90
25250;DHT22;13201;51.148;13.738;2023-09-12T09:48:08;26.30;99.90
25250;DHT22;13201;51.148;13.738;2023-09-12T09:50:37;26.50;99.90
25250;DHT22;13201;51.148;13.738;2023-09-12T09:53:04;26.60;99.90
25250;DHT22;13201;51.148;13.738;2023-09-12T09:55:34;26.70;99.90
25250;DHT22;13201;51.148;13.738;2023-09-12T09:58:00;26.80;99.90
25250;DHT22;13201;51.148;13.738;2023-09-12T10:00:26;27.00;99.90
25250;DHT22;13201;51.148;13.738;2023-09-12T10:02:54;27.00;99.90
25250;DHT22;13201;51.148;13.738;2023-09-12T10:05:21;27.20;99.90
25250;DHT22;13201;51.148;13.738;2023-09-12T10:07:49;27.30;99.90
25250;DHT22;13201;51.148;13.738;2023-09-12T10:10:17;27.40;99.90
25250;DHT22;13201;51.148;13.738;2023-09-12T10:12:49;27.70;99.90
25250;DHT22;13201;51.148;13.738;2023-09-12T10:15:18;27.70;99.90
25250;DHT22;13201;51.148;13.738;2023-09-12T10:17:47;27.70;99.90
25250;DHT22;13201;51.148;13.738;2023-09-12T10:20:20;27.80;99.90
25250;DHT22;13201;51.148;13.738;2023-09-12T10:22:56;27.70;99.90
25250;DHT22;13201;51.148;13.738;2023-09-12T10:25:26;27.90;99.90
25250;DHT22;13201;51.148;13.738;2023-09-12T10:27:54;28.00;99.90
25250;DHT22;13201;51.148;13.738;2023-09-12T10:30:22;28.20;99.90
25250;DHT22;13201;51.148;13.738;2023-09-12T10:32:48;28.30;99.90
25250;DHT22;13201;51.148;13.738;2023-09-12T10:35:15;28.40;99.90
25250;DHT22;13201;51.148;13.738;2023-09-12T10:37:43;28.60;99.90
25250;DHT22;13201;51.148;13.738;2023-09-12T10:40:11;28.80;99.90
25250;DHT22;13201;51.148;13.738;2023-09-12T10:42:39;28.70;99.70
25250;DHT22;13201;51.148;13.738;2023-09-12T10:45:05;28.80;99.80
25250;DHT22;13201;51.148;13.738;2023-09-12T10:47:33;28.70;99.90
25250;DHT22;13201;51.148;13.738;2023-09-12T10:49:59;28.90;99.90
25250;DHT22;13201;51.148;13.738;2023-09-12T10:52:26;29.10;99.90
25250;DHT22;13201;51.148;13.738;2023-09-12T10:54:52;29.10;99.00
25250;DHT22;13201;51.148;13.738;2023-09-12T10:57:18;29.20;99.00
25250;DHT22;13201;51.148;13.738;2023-09-12T11:02:33;29.40;99.30
25250;DHT22;13201;51.148;13.738;2023-09-12T11:05:00;29.30;99.10
25250;DHT22;13201;51.148;13.738;2023-09-12T11:12:46;29.80;98.70
25250;DHT22;13201;51.148;13.738;2023-09-12T11:15:13;30.10;99.20
25250;DHT22;13201;51.148;13.738;2023-09-12T11:17:44;30.40;98.70
25250;DHT22;13201;51.148;13.738;2023-09-12T11:20:11;30.50;98.50
25250;DHT22;13201;51.148;13.738;2023-09-12T11:22:44;30.50;97.60
25250;DHT22;13201;51.148;13.738;2023-09-12T11:25:24;30.50;97.70
25250;DHT22;13201;51.148;13.738;2023-09-12T11:32:50;31.20;97.50
25250;DHT22;13201;51.148;13.738;2023-09-12T11:35:16;31.40;96.10
25250;DHT22;13201;51.148;13.738;2023-09-12T11:37:56;31.40;96.20
25250;DHT22;13201;51.148;13.738;2023-09-12T11:42:58;31.30;96.10
25250;DHT22;13201;51.148;13.738;2023-09-12T11:45:24;31.30;96.40
25250;DHT22;13201;51.148;13.738;2023-09-12T11:47:50;31.80;96.10
25250;DHT22;13201;51.148;13.738;2023-09-12T11:53:07;31.90;95.70
25250;DHT22;13201;51.148;13.738;2023-09-12T11:56:02;31.90;94.50
25250;DHT22;13201;51.148;13.738;2023-09-12T11:58:28;31.60;94.00
25250;DHT22;13201;51.148;13.738;2023-09-12T12:00:56;32.20;94.70
25250;DHT22;13201;51.148;13.738;2023-09-12T12:03:26;32.20;94.00
25250;DHT22;13201;51.148;13.738;2023-09-12T12:05:54;32.30;94.00
25250;DHT22;13201;51.148;13.738;2023-09-12T12:08:20;32.70;95.40
25250;DHT22;13201;51.148;13.738;2023-09-12T12:10:53;32.90;93.00
25250;DHT22;13201;51.148;13.738;2023-09-12T12:13:20;33.10;93.00
25250;DHT22;13201;51.148;13.738;2023-09-12T12:15:46;33.30;92.70
25250;DHT22;13201;51.148;13.738;2023-09-12T12:18:12;33.20;92.40
25250;DHT22;13201;51.148;13.738;2023-09-12T12:20:38;33.00;91.50
25250;DHT22;13201;51.148;13.738;2023-09-12T12:23:04;33.10;91.30
25250;DHT22;13201;51.148;13.738;2023-09-12T12:25:33;33.30;91.60
25250;DHT22;13201;51.148;13.738;2023-09-12T12:28:00;33.50;91.50
25250;DHT22;13201;51.148;13.738;2023-09-12T12:30:29;33.70;91.00
25250;DHT22;13201;51.148;13.738;2023-09-12T12:32:55;33.50;90.50
25250;DHT22;13201;51.148;13.738;2023-09-12T12:35:23;33.70;89.70
25250;DHT22;13201;51.148;13.738;2023-09-12T12:37:55;33.50;90.20
25250;DHT22;13201;51.148;13.738;2023-09-12T12:40:23;33.80;90.50
25250;DHT22;13201;51.148;13.738;2023-09-12T12:42:50;34.10;88.90
25250;DHT22;13201;51.148;13.738;2023-09-12T12:45:19;34.30;87.70
25250;DHT22;13201;51.148;13.738;2023-09-12T12:47:45;34.30;86.90
25250;DHT22;13201;51.148;13.738;2023-09-12T12:50:11;34.20;87.90
25250;DHT22;13201;51.148;13.738;2023-09-12T12:52:41;34.40;87.80
25250;DHT22;13201;51.148;13.738;2023-09-12T12:55:10;34.10;86.50
25250;DHT22;13201;51.148;13.738;2023-09-12T12:57:40;34.00;86.60
25250;DHT22;13201;51.148;13.738;2023-09-12T13:00:11;34.00;85.30
25250;DHT22;13201;51.148;13.738;2023-09-12T13:02:38;34.40;83.70
25250;DHT22;13201;51.148;13.738;2023-09-12T13:05:06;34.40;85.50
25250;DHT22;13201;51.148;13.738;2023-09-12T13:07:35;34.60;84.40
25250;DHT22;13201;51.148;13.738;2023-09-12T13:10:01;34.80;84.30
25250;DHT22;13201;51.148;13.738;2023-09-12T13:12:28;34.50;83.30
25250;DHT22;13201;51.148;13.738;2023-09-12T13:14:53;34.60;83.30
25250;DHT22;13201;51.148;13.738;2023-09-12T13:17:19;34.40;82.70
25250;DHT22;13201;51.148;13.738;2023-09-12T13:19:45;34.30;81.20
25250;DHT22;13201;51.148;13.738;2023-09-12T13:22:11;33.70;80.30
25250;DHT22;13201;51.148;13.738;2023-09-12T13:24:36;33.80;80.30
25250;DHT22;13201;51.148;13.738;2023-09-12T13:27:02;34.50;80.20
25250;DHT22;13201;51.148;13.738;2023-09-12T13:29:28;35.10;80.30
25250;DHT22;13201;51.148;13.738;2023-09-12T13:31:53;34.90;80.20
25250;DHT22;13201;51.148;13.738;2023-09-12T13:34:19;35.40;81.40
25250;DHT22;13201;51.148;13.738;2023-09-12T13:36:45;35.80;79.60
25250;DHT22;13201;51.148;13.738;2023-09-12T13:39:11;35.40;77.30
25250;DHT22;13201;51.148;13.738;2023-09-12T13:41:38;35.70;77.70
25250;DHT22;13201;51.148;13.738;2023-09-12T13:44:05;35.70;77.00
25250;DHT22;13201;51.148;13.738;2023-09-12T13:46:31;35.50;78.40
25250;DHT22;13201;51.148;13.738;2023-09-12T13:48:57;35.50;78.70
25250;DHT22;13201;51.148;13.738;2023-09-12T13:51:26;34.90;76.70
25250;DHT22;13201;51.148;13.738;2023-09-12T13:53:52;35.20;76.60
25250;DHT22;13201;51.148;13.738;2023-09-12T13:56:18;35.90;76.30
25250;DHT22;13201;51.148;13.738;2023-09-12T13:58:43;36.10;75.20
25250;DHT22;13201;51.148;13.738;2023-09-12T14:01:09;35.70;73.90
25250;DHT22;13201;51.148;13.738;2023-09-12T14:03:35;35.50;74.70
25250;DHT22;13201;51.148;13.738;2023-09-12T14:06:00;35.80;75.90
25250;DHT22;13201;51.148;13.738;2023-09-12T14:08:26;35.90;74.80
25250;DHT22;13201;51.148;13.738;2023-09-12T14:10:52;35.90;74.30
25250;DHT22;13201;51.148;13.738;2023-09-12T14:13:17;35.80;74.60
25250;DHT22;13201;51.148;13.738;2023-09-12T14:15:43;36.00;75.40
25250;DHT22;13201;51.148;13.738;2023-09-12T14:18:09;35.80;73.00
25250;DHT22;13201;51.148;13.738;2023-09-12T14:20:35;35.80;72.20
25250;DHT22;13201;51.148;13.738;2023-09-12T14:23:00;35.90;72.30
25250;DHT22;13201;51.148;13.738;2023-09-12T14:25:26;35.70;73.00
25250;DHT22;13201;51.148;13.738;2023-09-12T14:27:52;36.20;71.80
25250;DHT22;13201;51.148;13.738;2023-09-12T14:30:18;36.40;72.50
25250;DHT22;13201;51.148;13.738;2023-09-12T14:32:46;35.80;71.20
25250;DHT22;13201;51.148;13.738;2023-09-12T14:35:11;36.10;72.70
25250;DHT22;13201;51.148;13.738;2023-09-12T14:37:37;36.20;72.40
25250;DHT22;13201;51.148;13.738;2023-09-12T14:40:04;36.20;71.90
25250;DHT22;13201;51.148;13.738;2023-09-12T14:42:30;36.60;71.50
25250;DHT22;13201;51.148;13.738;2023-09-12T14:44:56;36.40;72.20
25250;DHT22;13201;51.148;13.738;2023-09-12T14:47:22;35.90;70.60
25250;DHT22;13201;51.148;13.738;2023-09-12T14:49:48;35.90;71.00
25250;DHT22;13201;51.148;13.738;2023-09-12T14:52:13;36.10;71.20
25250;DHT22;13201;51.148;13.738;2023-09-12T14:54:39;36.10;71.90
25250;DHT22;13201;51.148;13.738;2023-09-12T14:57:05;36.20;72.50
25250;DHT22;13201;51.148;13.738;2023-09-12T14:59:30;36.10;71.50
25250;DHT22;13201;51.148;13.738;2023-09-12T15:01:56;36.00;71.40
25250;DHT22;13201;51.148;13.738;2023-09-12T15:04:21;36.00;70.30
25250;DHT22;13201;51.148;13.738;2023-09-12T15:06:47;35.80;72.90
25250;DHT22;13201;51.148;13.738;2023-09-12T15:09:13;35.50;73.20
25250;DHT22;13201;51.148;13.738;2023-09-12T15:11:39;35.10;73.30
25250;DHT22;13201;51.148;13.738;2023-09-12T15:14:04;35.40;72.60
25250;DHT22;13201;51.148;13.738;2023-09-12T15:16:30;35.20;72.40
25250;DHT22;13201;51.148;13.738;2023-09-12T15:19:00;34.90;72.50
25250;DHT22;13201;51.148;13.738;2023-09-12T15:21:28;35.00;72.50
25250;DHT22;13201;51.148;13.738;2023-09-12T15:23:53;34.90;72.80
25250;DHT22;13201;51.148;13.738;2023-09-12T15:26:19;34.40;72.10
25250;DHT22;13201;51.148;13.738;2023-09-12T15:28:45;34.50;73.80
25250;DHT22;13201;51.148;13.738;2023-09-12T15:31:11;34.60;74.70
25250;DHT22;13201;51.148;13.738;2023-09-12T15:33:37;34.30;74.90
25250;DHT22;13201;51.148;13.738;2023-09-12T15:36:02;34.00;76.10
25250;DHT22;13201;51.148;13.738;2023-09-12T15:38:28;33.80;75.10
25250;DHT22;13201;51.148;13.738;2023-09-12T15:40:54;33.80;74.00
25250;DHT22;13201;51.148;13.738;2023-09-12T15:43:22;34.00;78.20
25250;DHT22;13201;51.148;13.738;2023-09-12T15:45:48;34.10;78.80
25250;DHT22;13201;51.148;13.738;2023-09-12T15:48:14;34.10;79.90
25250;DHT22;13201;51.148;13.738;2023-09-12T15:50:40;34.50;76.00
25250;DHT22;13201;51.148;13.738;2023-09-12T15:53:05;34.60;78.30
25250;DHT22;13201;51.148;13.738;2023-09-12T15:55:31;34.40;76.20